Time;durP1;ratioP1;P1;durP2;ratioP2;P2;SDS_P1;SDS_P2;PMS_P1;PMS_P2;Temp;Humidity;BMP_temperature;BMP_pressure;BME280_temperature;BME280_humidity;BME280_pressure;Samples;Min_cycle;Max_cycle;Signal;HPM_P1;HPM_P2
2021/06/28 00:02:29;;;;;;;26.30;19.90;;;;;;;;;;5069841;28;20493;-72
2021/06/28 00:04:54;;;;;;;38.37;19.90;;;;;;;;;;5067942;28;20192;-71
2021/06/28 00:07:19;;;;;;;24.03;18.10;;;;;;;;;;5070247;28;20841;-72
2021/06/28 00:09:45;;;;;;;21.47;16.50;;;;;;;;;;5066064;28;20176;-72
2021/06/28 00:12:10;;;;;;;21.43;16.60;;;;;;;;;;5069972;28;20176;-72
2021/06/28 00:14:35;;;;;;;26.70;20.00;;;;;;;;;;5068569;28;20230;-71
2021/06/28 00:17:01;;;;;;;30.10;18.17;;;;;;;;;;5063819;28;20172;-73
2021/06/28 00:19:26;;;;;;;20.33;15.87;;;;;;;;;;5069483;28;20168;-74
2021/06/28 00:21:51;;;;;;;19.07;14.90;;;;;;;;;;5067599;28;20290;-73
2021/06/28 00:24:17;;;;;;;17.93;15.73;;;;;;;;;;5068822;28;20161;-76
2021/06/28 00:26:42;;;;;;;16.87;15.10;;;;;;;;;;5069601;28;20196;-73
2021/06/28 00:29:07;;;;;;;19.00;14.33;;;;;;;;;;5069742;28;20180;-73
2021/06/28 00:31:32;;;;;;;25.63;17.23;;;;;;;;;;5070434;28;20895;-73
2021/06/28 00:33:59;;;;;;;19.10;15.90;;;;;;;;;;5069741;28;20171;-71
2021/06/28 00:36:24;;;;;;;21.30;15.87;;;;;;;;;;5069868;28;20173;-72
2021/06/28 00:38:49;;;;;;;19.50;15.33;;;;;;;;;;5069057;28;20418;-73
2021/06/28 00:41:15;;;;;;;18.90;15.10;;;;;;;;;;5069294;28;20200;-73
2021/06/28 00:43:40;;;;;;;23.40;16.43;;;;;;;;;;5069969;28;20168;-73
2021/06/28 00:46:05;;;;;;;22.50;16.03;;;;;;;;;;5070147;28;20168;-72
2021/06/28 00:48:31;;;;;;;25.13;18.73;;;;;;;;;;5070911;28;20156;-73
2021/06/28 00:50:57;;;;;;;23.40;17.93;;;;;;;;;;5072004;28;20547;-72
2021/06/28 00:53:23;;;;;;;27.23;17.37;;;;;;;;;;5072607;28;20169;-73
2021/06/28 00:55:49;;;;;;;22.77;17.00;;;;;;;;;;5072307;28;20498;-73
2021/06/28 00:58:15;;;;;;;20.43;15.73;;;;;;;;;;5071621;28;20411;-73
2021/06/28 01:00:40;;;;;;;21.40;14.93;;;;;;;;;;5071799;28;20457;-73
2021/06/28 01:03:06;;;;;;;20.13;15.50;;;;;;;;;;5071794;28;20164;-73
2021/06/28 01:05:33;;;;;;;26.97;15.70;;;;;;;;;;5072166;28;20707;-74
2021/06/28 01:08:02;;;;;;;20.57;15.00;;;;;;;;;;5071071;28;20164;-72
2021/06/28 01:10:27;;;;;;;22.60;14.80;;;;;;;;;;5071769;28;20418;-72
2021/06/28 01:12:53;;;;;;;18.00;14.20;;;;;;;;;;5070781;28;20498;-72
2021/06/28 01:15:18;;;;;;;22.67;15.10;;;;;;;;;;5067003;28;20862;-72
2021/06/28 01:17:44;;;;;;;23.53;15.40;;;;;;;;;;5068835;28;20168;-72
2021/06/28 01:20:12;;;;;;;23.27;15.13;;;;;;;;;;5069293;28;20160;-72
2021/06/28 01:22:39;;;;;;;19.30;13.47;;;;;;;;;;5068896;28;20295;-72
2021/06/28 01:25:07;;;;;;;16.97;13.80;;;;;;;;;;5069695;28;20952;-72
2021/06/28 01:27:34;;;;;;;20.60;14.50;;;;;;;;;;5068386;28;20415;-71
2021/06/28 01:29:59;;;;;;;20.87;15.50;;;;;;;;;;5068960;28;20407;-70
2021/06/28 01:32:25;;;;;;;20.50;14.13;;;;;;;;;;5069215;28;20403;-70
2021/06/28 01:34:50;;;;;;;18.50;14.10;;;;;;;;;;5069040;28;20165;-71
2021/06/28 01:37:19;;;;;;;21.07;13.77;;;;;;;;;;5067359;28;20185;-71
2021/06/28 01:39:45;;;;;;;19.20;14.20;;;;;;;;;;5069008;28;20172;-70
2021/06/28 01:42:10;;;;;;;18.37;15.13;;;;;;;;;;5067289;28;20465;-72
2021/06/28 01:44:36;;;;;;;21.50;14.33;;;;;;;;;;5068226;28;20425;-71
2021/06/28 01:47:01;;;;;;;23.93;14.33;;;;;;;;;;5068988;28;20643;-71
2021/06/28 01:49:26;;;;;;;26.00;14.00;;;;;;;;;;5069053;28;20160;-70
2021/06/28 01:51:52;;;;;;;24.07;14.40;;;;;;;;;;5068817;28;20258;-70
2021/06/28 01:54:17;;;;;;;21.53;14.10;;;;;;;;;;5068986;28;20693;-71
2021/06/28 01:56:43;;;;;;;24.70;15.60;;;;;;;;;;5068692;28;20702;-72
2021/06/28 01:59:08;;;;;;;20.20;15.93;;;;;;;;;;5068366;28;20164;-72
2021/06/28 02:01:33;;;;;;;21.40;15.70;;;;;;;;;;5068438;28;20294;-72
2021/06/28 02:03:59;;;;;;;19.60;16.43;;;;;;;;;;5068643;28;20541;-72
2021/06/28 02:06:24;;;;;;;22.37;15.67;;;;;;;;;;5068359;28;20187;-71
2021/06/28 02:08:49;;;;;;;22.97;16.53;;;;;;;;;;5068880;28;20250;-72
2021/06/28 02:11:15;;;;;;;23.27;15.73;;;;;;;;;;5068382;28;20164;-72
2021/06/28 02:13:40;;;;;;;24.37;15.63;;;;;;;;;;5068343;28;20278;-71
2021/06/28 02:16:05;;;;;;;25.60;16.07;;;;;;;;;;5067511;28;20216;-71
2021/06/28 02:18:31;;;;;;;18.57;15.00;;;;;;;;;;5068631;28;20589;-72
2021/06/28 02:20:57;;;;;;;24.07;15.50;;;;;;;;;;5068135;28;20196;-72
2021/06/28 02:23:24;;;;;;;26.20;15.93;;;;;;;;;;5068343;28;20168;-72
2021/06/28 02:25:52;;;;;;;23.03;15.13;;;;;;;;;;5068199;28;20430;-72
2021/06/28 02:28:17;;;;;;;24.03;16.30;;;;;;;;;;5068077;28;20398;-71
2021/06/28 02:30:43;;;;;;;19.83;14.47;;;;;;;;;;5068080;28;20410;-72
2021/06/28 02:33:08;;;;;;;23.03;16.40;;;;;;;;;;5068226;28;20251;-74
2021/06/28 02:35:34;;;;;;;25.10;19.57;;;;;;;;;;5068128;28;20422;-73
2021/06/28 02:37:59;;;;;;;34.97;24.17;;;;;;;;;;5066996;28;20194;-73
2021/06/28 02:40:24;;;;;;;24.00;17.13;;;;;;;;;;5072246;28;20237;-72
2021/06/28 02:42:50;;;;;;;31.83;17.17;;;;;;;;;;5072267;28;20180;-72
2021/06/28 02:45:15;;;;;;;30.13;19.60;;;;;;;;;;5072354;28;20288;-72
2021/06/28 02:47:41;;;;;;;26.70;18.20;;;;;;;;;;5072553;28;20234;-71
2021/06/28 02:50:07;;;;;;;32.70;19.63;;;;;;;;;;5072108;28;20562;-71
2021/06/28 02:52:33;;;;;;;22.53;18.20;;;;;;;;;;5070362;28;20176;-71
2021/06/28 02:54:58;;;;;;;24.80;17.43;;;;;;;;;;5071683;28;20398;-72
2021/06/28 02:57:23;;;;;;;27.93;18.53;;;;;;;;;;5072376;28;20603;-73
2021/06/28 02:59:48;;;;;;;29.30;18.70;;;;;;;;;;5072541;28;20208;-72
2021/06/28 03:02:14;;;;;;;27.20;19.33;;;;;;;;;;5071238;28;20240;-71
2021/06/28 03:04:39;;;;;;;23.13;19.17;;;;;;;;;;5072396;28;20592;-71
2021/06/28 03:07:04;;;;;;;28.20;19.20;;;;;;;;;;5071705;28;20172;-71
2021/06/28 03:09:30;;;;;;;30.97;18.80;;;;;;;;;;5072119;28;20184;-73
2021/06/28 03:11:55;;;;;;;29.73;19.63;;;;;;;;;;5071519;28;20165;-71
2021/06/28 03:14:21;;;;;;;29.10;18.60;;;;;;;;;;5071436;28;20220;-71
2021/06/28 03:16:46;;;;;;;27.80;18.30;;;;;;;;;;5071637;28;20265;-72
2021/06/28 03:19:11;;;;;;;25.77;18.50;;;;;;;;;;5069945;28;20251;-71
2021/06/28 03:21:36;;;;;;;24.50;18.60;;;;;;;;;;5066602;28;20207;-71
2021/06/28 03:24:02;;;;;;;23.93;17.20;;;;;;;;;;5071864;28;20578;-72
2021/06/28 03:26:27;;;;;;;26.27;17.30;;;;;;;;;;5071541;28;20174;-72
2021/06/28 03:28:52;;;;;;;27.60;19.03;;;;;;;;;;5071210;28;20164;-73
2021/06/28 03:31:18;;;;;;;24.67;16.57;;;;;;;;;;5070923;28;20274;-71
2021/06/28 03:33:43;;;;;;;28.43;18.20;;;;;;;;;;5071058;28;20172;-71
2021/06/28 03:36:09;;;;;;;35.03;20.50;;;;;;;;;;5071452;28;20175;-71
2021/06/28 03:38:34;;;;;;;29.43;19.90;;;;;;;;;;5069034;28;20168;-71
2021/06/28 03:40:59;;;;;;;29.17;20.20;;;;;;;;;;5071793;28;20196;-71
2021/06/28 03:43:25;;;;;;;25.73;19.37;;;;;;;;;;5071154;28;20760;-71
2021/06/28 03:45:50;;;;;;;26.80;19.97;;;;;;;;;;5071618;28;20164;-72
2021/06/28 03:48:16;;;;;;;36.40;20.67;;;;;;;;;;5070475;28;20167;-73
2021/06/28 03:50:42;;;;;;;30.07;21.13;;;;;;;;;;5067131;28;20187;-71
2021/06/28 03:53:07;;;;;;;36.07;21.70;;;;;;;;;;5064937;28;20179;-71
2021/06/28 03:55:33;;;;;;;32.77;22.40;;;;;;;;;;5070655;28;20415;-73
2021/06/28 03:57:59;;;;;;;37.10;23.80;;;;;;;;;;5069825;28;20188;-75
2021/06/28 04:00:25;;;;;;;36.73;23.50;;;;;;;;;;5068578;28;20177;-72
2021/06/28 04:02:52;;;;;;;36.93;23.50;;;;;;;;;;5071136;28;20634;-73
2021/06/28 04:05:20;;;;;;;38.47;23.57;;;;;;;;;;5070453;28;20406;-71
2021/06/28 04:07:46;;;;;;;40.73;22.93;;;;;;;;;;5070517;28;20403;-71
2021/06/28 04:10:12;;;;;;;41.37;24.30;;;;;;;;;;5069383;28;20484;-71
2021/06/28 04:12:38;;;;;;;39.07;27.57;;;;;;;;;;5060129;28;20165;-73
2021/06/28 04:15:05;;;;;;;58.23;28.63;;;;;;;;;;5067150;28;20988;-72
2021/06/28 04:17:30;;;;;;;61.73;37.50;;;;;;;;;;5062554;28;20183;-72
2021/06/28 04:19:56;;;;;;;50.57;36.63;;;;;;;;;;5070498;28;20399;-73
2021/06/28 04:22:21;;;;;;;51.87;36.23;;;;;;;;;;5069835;28;20202;-72
2021/06/28 04:24:46;;;;;;;57.70;37.40;;;;;;;;;;5070488;28;20209;-74
2021/06/28 04:27:11;;;;;;;69.97;40.17;;;;;;;;;;5070367;28;20259;-73
2021/06/28 04:29:37;;;;;;;47.87;34.23;;;;;;;;;;5070604;28;20642;-74
2021/06/28 04:32:03;;;;;;;51.50;36.77;;;;;;;;;;5068482;28;20923;-72
2021/06/28 04:34:28;;;;;;;46.40;32.60;;;;;;;;;;5068297;28;20222;-73
2021/06/28 04:36:54;;;;;;;47.63;29.03;;;;;;;;;;5067902;28;20415;-73
2021/06/28 04:39:19;;;;;;;43.53;27.87;;;;;;;;;;5050669;28;20168;-72
2021/06/28 04:41:45;;;;;;;43.57;27.57;;;;;;;;;;5069719;28;20242;-72
2021/06/28 04:44:10;;;;;;;38.33;25.67;;;;;;;;;;5069698;28;20175;-75
2021/06/28 04:46:35;;;;;;;37.77;27.17;;;;;;;;;;5069125;28;20164;-73
2021/06/28 04:49:01;;;;;;;43.73;25.20;;;;;;;;;;5069316;28;20260;-74
2021/06/28 04:51:26;;;;;;;32.57;22.30;;;;;;;;;;5068782;28;20198;-71
2021/06/28 04:53:51;;;;;;;37.60;19.10;;;;;;;;;;5069509;28;20157;-72
2021/06/28 04:56:17;;;;;;;36.13;19.33;;;;;;;;;;5069426;28;20551;-73
2021/06/28 04:58:42;;;;;;;44.20;18.73;;;;;;;;;;5066941;28;20196;-72
2021/06/28 05:01:07;;;;;;;20.50;13.03;;;;;;;;;;5068886;28;20287;-73
2021/06/28 05:03:33;;;;;;;16.57;11.60;;;;;;;;;;5068602;28;20157;-72
2021/06/28 05:05:58;;;;;;;24.20;12.90;;;;;;;;;;5068289;28;20191;-73
2021/06/28 05:08:23;;;;;;;15.83;11.40;;;;;;;;;;5067757;28;20712;-72
2021/06/28 05:10:49;;;;;;;17.83;11.90;;;;;;;;;;5068582;28;20164;-72
2021/06/28 05:13:14;;;;;;;26.60;12.73;;;;;;;;;;5066766;28;20168;-74
2021/06/28 05:15:39;;;;;;;32.83;19.30;;;;;;;;;;5067237;28;20212;-74
2021/06/28 05:18:05;;;;;;;29.43;21.30;;;;;;;;;;5069686;28;20164;-73
2021/06/28 05:20:30;;;;;;;31.23;20.77;;;;;;;;;;5067250;28;20176;-73
2021/06/28 05:22:55;;;;;;;43.23;21.90;;;;;;;;;;5071101;28;20883;-72
2021/06/28 05:25:21;;;;;;;29.60;20.67;;;;;;;;;;5050449;28;20643;-74
2021/06/28 05:27:46;;;;;;;34.67;21.27;;;;;;;;;;5070523;28;20228;-74
2021/06/28 05:30:13;;;;;;;30.70;21.97;;;;;;;;;;5067965;28;20263;-73
2021/06/28 05:32:38;;;;;;;33.50;21.67;;;;;;;;;;5070779;28;20168;-73
2021/06/28 05:35:04;;;;;;;31.03;21.10;;;;;;;;;;5068774;28;20540;-72
2021/06/28 05:37:30;;;;;;;27.40;19.93;;;;;;;;;;5071683;28;20183;-73
2021/06/28 05:39:55;;;;;;;25.70;19.10;;;;;;;;;;5071181;28;20399;-73
2021/06/28 05:42:21;;;;;;;28.03;19.70;;;;;;;;;;5070482;28;20589;-74
2021/06/28 05:44:47;;;;;;;24.67;19.73;;;;;;;;;;5071471;28;20239;-74
2021/06/28 05:47:14;;;;;;;27.60;20.10;;;;;;;;;;5070885;28;20207;-75
2021/06/28 05:49:41;;;;;;;35.33;22.20;;;;;;;;;;5070545;28;20482;-75
2021/06/28 05:52:07;;;;;;;31.87;22.97;;;;;;;;;;5071337;28;20403;-73
2021/06/28 05:54:32;;;;;;;25.30;19.90;;;;;;;;;;5074011;28;20490;-74
2021/06/28 05:56:58;;;;;;;24.03;19.33;;;;;;;;;;5072277;28;20783;-75
2021/06/28 05:59:24;;;;;;;25.60;18.87;;;;;;;;;;5072483;28;20218;-75
2021/06/28 06:01:49;;;;;;;23.30;18.60;;;;;;;;;;5074428;28;20219;-74
2021/06/28 06:04:15;;;;;;;25.40;19.53;;;;;;;;;;5061000;28;20642;-72
2021/06/28 06:06:41;;;;;;;25.30;18.57;;;;;;;;;;5071805;28;20224;-75
2021/06/28 06:09:06;;;;;;;34.13;19.50;;;;;;;;;;5071866;28;20176;-74
2021/06/28 06:11:31;;;;;;;29.80;19.47;;;;;;;;;;5073318;28;20410;-71
2021/06/28 06:13:57;;;;;;;32.43;19.90;;;;;;;;;;5071928;28;20194;-74
2021/06/28 06:16:24;;;;;;;28.40;18.60;;;;;;;;;;5073445;28;20672;-72
2021/06/28 06:18:49;;;;;;;28.57;18.63;;;;;;;;;;5072576;28;20168;-74
2021/06/28 06:21:14;;;;;;;24.43;20.30;;;;;;;;;;5070698;28;20447;-72
2021/06/28 06:23:40;;;;;;;29.70;19.30;;;;;;;;;;5070436;28;20216;-74
2021/06/28 06:26:05;;;;;;;27.73;20.70;;;;;;;;;;5070854;28;20195;-72
2021/06/28 06:28:30;;;;;;;37.33;20.80;;;;;;;;;;5070506;28;20164;-75
2021/06/28 06:30:55;;;;;;;30.73;20.47;;;;;;;;;;5070558;28;20650;-74
2021/06/28 06:33:21;;;;;;;27.47;21.20;;;;;;;;;;5070741;28;20156;-72
2021/06/28 06:35:47;;;;;;;31.27;21.90;;;;;;;;;;5070769;28;20204;-73
2021/06/28 06:38:12;;;;;;;31.20;21.03;;;;;;;;;;5069381;28;20168;-72
2021/06/28 06:40:42;;;;;;;37.50;22.03;;;;;;;;;;5070665;28;20160;-74
2021/06/28 06:43:07;;;;;;;30.37;19.67;;;;;;;;;;5070499;28;20313;-72
2021/06/28 06:45:32;;;;;;;32.63;21.00;;;;;;;;;;5069792;28;20482;-76
2021/06/28 06:47:58;;;;;;;25.00;18.67;;;;;;;;;;5070799;28;20247;-74
2021/06/28 06:50:23;;;;;;;22.60;14.37;;;;;;;;;;5070643;28;20160;-73
2021/06/28 06:52:49;;;;;;;26.43;14.60;;;;;;;;;;5068846;28;20175;-73
2021/06/28 06:55:15;;;;;;;19.87;14.17;;;;;;;;;;5070050;28;20192;-73
2021/06/28 06:57:40;;;;;;;20.33;13.20;;;;;;;;;;5069881;28;20160;-73
2021/06/28 07:00:08;;;;;;;18.53;11.83;;;;;;;;;;5070395;28;20192;-77
2021/06/28 07:02:33;;;;;;;15.03;11.23;;;;;;;;;;5070618;28;20564;-73
2021/06/28 07:04:59;;;;;;;14.20;10.40;;;;;;;;;;5071402;28;20928;-73
2021/06/28 07:07:24;;;;;;;18.53;11.70;;;;;;;;;;5070356;28;20164;-73
2021/06/28 07:09:50;;;;;;;16.10;11.13;;;;;;;;;;5069652;28;20644;-74
2021/06/28 07:12:15;;;;;;;18.80;11.00;;;;;;;;;;5070190;28;20164;-74
2021/06/28 07:14:41;;;;;;;21.07;12.23;;;;;;;;;;5069426;28;20251;-72
2021/06/28 07:17:06;;;;;;;16.23;11.60;;;;;;;;;;5069419;28;20164;-72
2021/06/28 07:19:31;;;;;;;19.60;12.80;;;;;;;;;;5070215;28;20265;-73
2021/06/28 07:21:57;;;;;;;20.17;11.00;;;;;;;;;;5071252;28;20250;-74
2021/06/28 07:24:22;;;;;;;18.33;13.57;;;;;;;;;;5070228;28;20172;-73
2021/06/28 07:26:48;;;;;;;16.33;14.57;;;;;;;;;;5073252;28;20180;-71
2021/06/28 07:29:13;;;;;;;19.30;13.80;;;;;;;;;;5073850;28;20604;-74
2021/06/28 07:31:38;;;;;;;22.53;14.13;;;;;;;;;;5072019;28;20221;-75
2021/06/28 07:34:04;;;;;;;20.53;17.37;;;;;;;;;;5071854;28;20164;-75
2021/06/28 07:36:29;;;;;;;17.63;12.30;;;;;;;;;;5073407;28;20241;-76
2021/06/28 07:38:56;;;;;;;16.37;12.23;;;;;;;;;;5073674;28;20635;-78
2021/06/28 07:41:21;;;;;;;19.50;12.67;;;;;;;;;;5073790;28;20614;-77
2021/06/28 07:43:47;;;;;;;15.10;11.40;;;;;;;;;;5073584;28;20900;-76
2021/06/28 07:46:12;;;;;;;18.70;12.40;;;;;;;;;;5073618;28;20627;-76
2021/06/28 07:48:39;;;;;;;17.00;12.37;;;;;;;;;;5073416;28;20160;-79
2021/06/28 07:51:05;;;;;;;12.73;10.27;;;;;;;;;;5054206;28;20511;-75
2021/06/28 07:53:30;;;;;;;14.80;9.70;;;;;;;;;;5073061;28;20900;-74
2021/06/28 07:55:55;;;;;;;16.60;10.90;;;;;;;;;;5073230;28;20176;-76
2021/06/28 07:58:21;;;;;;;18.23;10.43;;;;;;;;;;5055187;28;20192;-79
2021/06/28 08:00:46;;;;;;;18.43;11.93;;;;;;;;;;5073203;28;20217;-75
2021/06/28 08:03:11;;;;;;;13.10;10.77;;;;;;;;;;5072917;28;20178;-74
2021/06/28 08:05:41;;;;;;;11.47;9.93;;;;;;;;;;5072770;28;20152;-78
2021/06/28 08:08:08;;;;;;;10.73;9.30;;;;;;;;;;5072546;28;20168;-72
2021/06/28 08:10:34;;;;;;;13.10;10.23;;;;;;;;;;5072991;28;20393;-74
2021/06/28 08:13:00;;;;;;;14.13;9.63;;;;;;;;;;5072247;28;20642;-74
2021/06/28 08:15:25;;;;;;;14.37;9.77;;;;;;;;;;5072389;28;20270;-74
2021/06/28 08:17:51;;;;;;;13.53;8.90;;;;;;;;;;5072547;28;20856;-74
2021/06/28 08:20:18;;;;;;;12.83;9.77;;;;;;;;;;5072241;28;20168;-73
2021/06/28 08:22:44;;;;;;;12.17;9.10;;;;;;;;;;5072539;28;20267;-72
2021/06/28 08:25:10;;;;;;;11.23;10.03;;;;;;;;;;5072836;28;20407;-74
2021/06/28 08:27:36;;;;;;;9.63;8.63;;;;;;;;;;5072765;28;20401;-73
2021/06/28 08:30:02;;;;;;;10.00;8.90;;;;;;;;;;5072477;28;20395;-73
2021/06/28 08:32:27;;;;;;;11.93;9.77;;;;;;;;;;5072293;28;20519;-73
2021/06/28 08:34:55;;;;;;;15.53;9.13;;;;;;;;;;5072505;28;20474;-74
2021/06/28 08:37:20;;;;;;;14.00;10.80;;;;;;;;;;5071764;28;20176;-73
2021/06/28 08:39:46;;;;;;;12.57;9.50;;;;;;;;;;5072337;28;20830;-71
2021/06/28 08:42:11;;;;;;;11.87;10.10;;;;;;;;;;5070993;28;20207;-74
2021/06/28 08:44:36;;;;;;;11.40;9.83;;;;;;;;;;5071310;28;20637;-73
2021/06/28 08:47:03;;;;;;;12.77;10.10;;;;;;;;;;5071939;28;20172;-73
2021/06/28 08:49:28;;;;;;;11.17;9.23;;;;;;;;;;5071756;28;20168;-75
2021/06/28 08:51:54;;;;;;;12.37;10.27;;;;;;;;;;5071781;28;20398;-73
2021/06/28 08:54:20;;;;;;;19.87;9.63;;;;;;;;;;5071104;28;20240;-72
2021/06/28 08:56:46;;;;;;;12.07;9.57;;;;;;;;;;5071719;28;20422;-74
2021/06/28 08:59:11;;;;;;;11.80;9.10;;;;;;;;;;5071797;28;20160;-74
2021/06/28 09:01:37;;;;;;;10.40;9.30;;;;;;;;;;5053834;28;20200;-75
2021/06/28 09:04:03;;;;;;;9.10;8.00;;;;;;;;;;5071302;28;20535;-74
2021/06/28 09:06:29;;;;;;;9.20;8.30;;;;;;;;;;5070952;28;20171;-77
2021/06/28 09:09:03;;;;;;;11.20;9.40;;;;;;;;;;5071343;28;20789;-77
2021/06/28 09:11:29;;;;;;;10.10;8.70;;;;;;;;;;5072135;28;20164;-77
2021/06/28 09:13:56;;;;;;;13.73;9.90;;;;;;;;;;5069225;28;20410;-74
2021/06/28 09:16:23;;;;;;;10.83;8.63;;;;;;;;;;5052102;28;20272;-75
2021/06/28 09:18:50;;;;;;;10.43;8.17;;;;;;;;;;5051625;28;20419;-77
2021/06/28 09:21:16;;;;;;;12.90;9.37;;;;;;;;;;5050523;28;20474;-75
2021/06/28 09:23:42;;;;;;;10.77;9.27;;;;;;;;;;5050401;28;20439;-74
2021/06/28 09:26:11;;;;;;;12.27;9.90;;;;;;;;;;5051537;28;20161;-75
2021/06/28 09:28:42;;;;;;;13.23;9.40;;;;;;;;;;5050877;28;20909;-76
2021/06/28 09:31:11;;;;;;;11.70;8.83;;;;;;;;;;5052094;28;20446;-77
2021/06/28 09:33:36;;;;;;;12.23;9.57;;;;;;;;;;5018679;28;20404;-73
2021/06/28 09:36:20;;;;;;;11.43;10.23;;;;;;;;;;5034170;28;20427;-75
2021/06/28 09:38:45;;;;;;;12.43;9.47;;;;;;;;;;5052835;28;20236;-76
2021/06/28 09:41:31;;;;;;;9.90;8.90;;;;;;;;;;5053607;28;20581;-75
2021/06/28 09:44:02;;;;;;;12.23;9.00;;;;;;;;;;5052582;28;20157;-74
2021/06/28 09:46:28;;;;;;;11.33;9.37;;;;;;;;;;5051495;28;20490;-73
2021/06/28 09:48:54;;;;;;;13.73;9.07;;;;;;;;;;5049781;28;20464;-72
2021/06/28 09:51:21;;;;;;;10.77;8.80;;;;;;;;;;5050356;28;20494;-74
2021/06/28 09:53:47;;;;;;;12.80;9.40;;;;;;;;;;5049954;28;20407;-73
2021/06/28 09:56:29;;;;;;;9.33;8.03;;;;;;;;;;5050526;28;20518;-74
2021/06/28 09:58:54;;;;;;;10.83;8.03;;;;;;;;;;5031775;28;20993;-75
2021/06/28 10:01:25;;;;;;;10.53;8.00;;;;;;;;;;5050301;28;20512;-75
2021/06/28 10:03:53;;;;;;;37.00;30.93;;;;;;;;;;5050203;28;20164;-74
2021/06/28 10:08:45;;;;;;;14.53;11.03;;;;;;;;;;5050123;28;20771;-78
2021/06/28 10:11:22;;;;;;;11.60;7.87;;;;;;;;;;5049560;28;20651;-72
2021/06/28 10:13:54;;;;;;;17.90;15.10;;;;;;;;;;5049440;28;20914;-74
2021/06/28 10:16:22;;;;;;;12.00;8.70;;;;;;;;;;5050088;28;20909;-73
2021/06/28 10:18:48;;;;;;;19.50;13.87;;;;;;;;;;5049932;28;20400;-75
2021/06/28 10:21:13;;;;;;;11.93;9.37;;;;;;;;;;5049490;28;20447;-73
2021/06/28 10:23:39;;;;;;;10.90;8.40;;;;;;;;;;5049575;28;20321;-73
2021/06/28 10:26:05;;;;;;;12.67;9.57;;;;;;;;;;5041309;28;20171;-73
2021/06/28 10:28:30;;;;;;;13.60;10.20;;;;;;;;;;5049170;28;20160;-73
2021/06/28 10:30:56;;;;;;;9.43;7.90;;;;;;;;;;5049498;28;20160;-75
2021/06/28 10:33:23;;;;;;;10.37;8.30;;;;;;;;;;5049567;28;20176;-72
2021/06/28 10:35:48;;;;;;;10.47;7.73;;;;;;;;;;5050217;28;20212;-72
2021/06/28 10:38:14;;;;;;;12.30;8.30;;;;;;;;;;5049384;28;20420;-74
2021/06/28 10:40:51;;;;;;;12.37;8.67;;;;;;;;;;5049793;28;20165;-76
2021/06/28 10:43:24;;;;;;;9.80;8.40;;;;;;;;;;5049702;28;20245;-73
2021/06/28 10:45:50;;;;;;;12.13;8.07;;;;;;;;;;5049330;28;20392;-74
2021/06/28 10:48:17;;;;;;;9.00;7.27;;;;;;;;;;5050123;28;20414;-74
2021/06/28 10:51:00;;;;;;;8.77;7.70;;;;;;;;;;5049698;28;20169;-74
2021/06/28 10:53:29;;;;;;;11.90;7.90;;;;;;;;;;5049872;28;20513;-74
2021/06/28 10:55:54;;;;;;;10.07;8.53;;;;;;;;;;5049926;28;20950;-73
2021/06/28 10:58:27;;;;;;;9.93;8.50;;;;;;;;;;5049748;28;20941;-73
2021/06/28 11:00:53;;;;;;;8.60;7.23;;;;;;;;;;5053497;28;20200;-75
2021/06/28 11:03:26;;;;;;;7.63;6.67;;;;;;;;;;5054058;28;20457;-73
2021/06/28 11:06:10;;;;;;;8.30;6.90;;;;;;;;;;5053979;28;20395;-77
2021/06/28 11:08:40;;;;;;;11.27;7.80;;;;;;;;;;5053413;28;20521;-78
2021/06/28 11:11:05;;;;;;;9.70;7.80;;;;;;;;;;5053687;28;20411;-77
2021/06/28 11:13:40;;;;;;;8.90;7.13;;;;;;;;;;5053132;28;20486;-76
2021/06/28 11:16:23;;;;;;;10.37;7.80;;;;;;;;;;5071943;28;20739;-75
2021/06/28 11:18:49;;;;;;;11.53;7.90;;;;;;;;;;5073313;28;20406;-74
2021/06/28 11:21:34;;;;;;;9.30;7.93;;;;;;;;;;5073253;28;20453;-74
2021/06/28 11:24:00;;;;;;;15.70;8.27;;;;;;;;;;5073423;28;20183;-76
2021/06/28 11:26:33;;;;;;;13.13;8.83;;;;;;;;;;5072933;28;20391;-76
2021/06/28 11:28:59;;;;;;;10.90;8.40;;;;;;;;;;5073551;28;20395;-77
2021/06/28 11:31:29;;;;;;;12.73;8.10;;;;;;;;;;5073196;28;20386;-76
2021/06/28 11:33:55;;;;;;;9.87;7.93;;;;;;;;;;5073157;28;20423;-74
2021/06/28 11:36:24;;;;;;;11.43;8.73;;;;;;;;;;5073802;28;20406;-75
2021/06/28 11:38:50;;;;;;;10.43;8.70;;;;;;;;;;5072733;28;20447;-74
2021/06/28 11:41:16;;;;;;;13.27;9.00;;;;;;;;;;5073316;28;20474;-72
2021/06/28 11:43:44;;;;;;;12.17;9.80;;;;;;;;;;5072714;28;20379;-73
2021/06/28 11:46:11;;;;;;;11.13;9.17;;;;;;;;;;5071580;28;20410;-75
2021/06/28 11:48:38;;;;;;;14.00;10.30;;;;;;;;;;5073024;28;20758;-77
2021/06/28 11:51:18;;;;;;;13.53;10.63;;;;;;;;;;5073126;28;20747;-76
2021/06/28 11:53:53;;;;;;;15.60;10.00;;;;;;;;;;5073012;28;20569;-76
2021/06/28 11:56:23;;;;;;;12.67;10.77;;;;;;;;;;5073019;28;20505;-76
2021/06/28 11:58:52;;;;;;;14.10;10.27;;;;;;;;;;5072967;28;20395;-75
2021/06/28 12:01:22;;;;;;;12.10;8.67;;;;;;;;;;5072681;28;20796;-75
2021/06/28 12:03:47;;;;;;;16.47;12.40;;;;;;;;;;5072050;28;20411;-76
2021/06/28 12:06:13;;;;;;;15.20;13.20;;;;;;;;;;5072347;28;20467;-76
2021/06/28 12:08:38;;;;;;;16.63;11.30;;;;;;;;;;5071099;28;20222;-77
2021/06/28 12:11:04;;;;;;;11.77;10.20;;;;;;;;;;5071850;28;20249;-78
2021/06/28 12:13:30;;;;;;;11.43;9.40;;;;;;;;;;5072612;28;20530;-77
2021/06/28 12:15:56;;;;;;;14.40;11.67;;;;;;;;;;5071844;28;20219;-77
2021/06/28 12:18:21;;;;;;;13.83;11.07;;;;;;;;;;5073479;28;20398;-75
2021/06/28 12:20:54;;;;;;;16.27;12.00;;;;;;;;;;5072513;28;20235;-73
2021/06/28 12:23:22;;;;;;;12.77;11.50;;;;;;;;;;5071316;28;20586;-77
2021/06/28 12:25:47;;;;;;;13.30;11.60;;;;;;;;;;5072137;28;20449;-74
2021/06/28 12:28:13;;;;;;;16.13;11.90;;;;;;;;;;5072515;28;20437;-76
2021/06/28 12:30:38;;;;;;;16.47;11.30;;;;;;;;;;5072541;28;20666;-78
2021/06/28 12:33:06;;;;;;;13.03;11.27;;;;;;;;;;5072427;28;20168;-74
2021/06/28 12:35:32;;;;;;;16.40;12.07;;;;;;;;;;5072434;28;20175;-74
2021/06/28 12:37:59;;;;;;;14.93;11.67;;;;;;;;;;5071962;28;20399;-76
2021/06/28 12:40:30;;;;;;;16.10;13.10;;;;;;;;;;5071703;28;20195;-74
2021/06/28 12:42:58;;;;;;;14.73;11.50;;;;;;;;;;5071861;28;20466;-74
2021/06/28 12:45:31;;;;;;;17.83;11.70;;;;;;;;;;5071492;28;20403;-73
2021/06/28 12:47:57;;;;;;;20.60;12.07;;;;;;;;;;5072481;28;20402;-75
2021/06/28 12:50:24;;;;;;;20.40;12.23;;;;;;;;;;5071318;28;21033;-77
2021/06/28 12:52:52;;;;;;;17.70;12.53;;;;;;;;;;5076705;28;20236;-73
2021/06/28 12:55:32;;;;;;;13.90;11.97;;;;;;;;;;5053642;28;20521;-72
2021/06/28 12:58:05;;;;;;;18.60;14.50;;;;;;;;;;5071808;28;20403;-72
2021/06/28 13:00:32;;;;;;;18.77;13.83;;;;;;;;;;5070418;28;20395;-75
2021/06/28 13:03:02;;;;;;;20.97;18.60;;;;;;;;;;5071432;28;20449;-73
2021/06/28 13:05:32;;;;;;;15.53;12.80;;;;;;;;;;5083249;28;20402;-73
2021/06/28 13:08:13;;;;;;;20.20;13.77;;;;;;;;;;5084554;28;20414;-74
2021/06/28 13:10:39;;;;;;;17.70;13.00;;;;;;;;;;5071368;28;20889;-73
2021/06/28 13:13:19;;;;;;;18.53;16.53;;;;;;;;;;5071685;28;20438;-72
2021/06/28 13:16:02;;;;;;;19.90;14.03;;;;;;;;;;5070915;28;20450;-74
2021/06/28 13:18:27;;;;;;;18.30;13.43;;;;;;;;;;5075595;28;20459;-73
2021/06/28 13:20:53;;;;;;;13.00;11.67;;;;;;;;;;5075360;28;20908;-71
2021/06/28 13:23:24;;;;;;;17.87;14.27;;;;;;;;;;5063326;28;21009;-71
2021/06/28 13:25:50;;;;;;;15.27;12.50;;;;;;;;;;5068286;28;20167;-73
2021/06/28 13:28:15;;;;;;;17.83;11.93;;;;;;;;;;5074702;28;20415;-75
2021/06/28 13:30:41;;;;;;;12.93;11.33;;;;;;;;;;5056985;28;20259;-71
2021/06/28 13:33:15;;;;;;;13.60;11.03;;;;;;;;;;5070695;28;20172;-76
2021/06/28 13:35:44;;;;;;;17.37;11.43;;;;;;;;;;5082209;28;20175;-71
2021/06/28 13:38:11;;;;;;;15.50;12.03;;;;;;;;;;5074308;28;20966;-73
2021/06/28 13:40:37;;;;;;;12.33;9.83;;;;;;;;;;5055405;28;20426;-75
2021/06/28 13:43:03;;;;;;;16.07;10.50;;;;;;;;;;5067894;28;20984;-76
2021/06/28 13:45:37;;;;;;;13.63;10.33;;;;;;;;;;5070512;28;20430;-74
2021/06/28 13:48:07;;;;;;;13.50;11.53;;;;;;;;;;5066226;28;20176;-75
2021/06/28 13:50:34;;;;;;;25.13;9.80;;;;;;;;;;5072367;28;20414;-72
2021/06/28 13:53:08;;;;;;;12.90;9.90;;;;;;;;;;5072297;28;20402;-72
2021/06/28 13:55:33;;;;;;;14.57;10.60;;;;;;;;;;5070166;28;20423;-73
2021/06/28 13:58:00;;;;;;;13.87;10.73;;;;;;;;;;5070742;28;20398;-72
2021/06/28 14:00:27;;;;;;;11.37;8.63;;;;;;;;;;5056370;28;20164;-72
2021/06/28 14:02:56;;;;;;;12.73;8.90;;;;;;;;;;5070576;28;21048;-73
2021/06/28 14:05:22;;;;;;;12.03;10.23;;;;;;;;;;5071440;28;20387;-75
2021/06/28 14:07:47;;;;;;;13.90;10.43;;;;;;;;;;5078566;28;20402;-77
2021/06/28 14:10:13;;;;;;;13.13;9.57;;;;;;;;;;5073681;28;20156;-76
2021/06/28 14:12:39;;;;;;;14.23;10.20;;;;;;;;;;5072511;28;20174;-74
2021/06/28 14:15:05;;;;;;;11.00;9.50;;;;;;;;;;5069848;28;20230;-74
2021/06/28 14:17:30;;;;;;;15.17;9.13;;;;;;;;;;5068827;28;20394;-74
2021/06/28 14:19:56;;;;;;;14.60;9.73;;;;;;;;;;5069183;28;20411;-75
2021/06/28 14:22:21;;;;;;;11.23;9.40;;;;;;;;;;5067106;28;20231;-74